sensor_id;sensor_type;location;lat;lon;timestamp;pressure;altitude;pressure_sealevel;temperature;humidity
62458;BME280;48509;52.122;5.250;2024-01-11T00:00:20;103294.0;;;-3.11;80.03
62458;BME280;48509;52.122;5.250;2024-01-11T00:01:56;103303.0;;;-3.12;80.19
62458;BME280;48509;52.122;5.250;2024-01-11T00:03:32;103305.0;;;-3.13;79.7
62458;BME280;48509;52.122;5.250;2024-01-11T00:06:45;103302.0;;;-3.26;79.74
62458;BME280;48509;52.122;5.250;2024-01-11T00:08:21;103302.0;;;-3.33;80.14
62458;BME280;48509;52.122;5.250;2024-01-11T00:09:57;103303.0;;;-3.28;79.98
62458;BME280;48509;52.122;5.250;2024-01-11T00:13:09;103302.0;;;-3.28;80.3
62458;BME280;48509;52.122;5.250;2024-01-11T00:14:45;103300.0;;;-3.4;80.34
62458;BME280;48509;52.122;5.250;2024-01-11T00:16:22;103303.0;;;-3.45;80.58
62458;BME280;48509;52.122;5.250;2024-01-11T00:17:58;103302.0;;;-3.59;81.38
62458;BME280;48509;52.122;5.250;2024-01-11T00:21:10;103303.0;;;-3.49;81.44
62458;BME280;48509;52.122;5.250;2024-01-11T00:22:46;103298.0;;;-3.36;80.91
62458;BME280;48509;52.122;5.250;2024-01-11T00:24:22;103298.0;;;-3.43;81.63
62458;BME280;48509;52.122;5.250;2024-01-11T00:27:34;103301.0;;;-3.21;80.73
62458;BME280;48509;52.122;5.250;2024-01-11T00:29:10;103299.0;;;-3.32;80.69
62458;BME280;48509;52.122;5.250;2024-01-11T00:30:46;103297.0;;;-3.3;80.52
62458;BME280;48509;52.122;5.250;2024-01-11T00:33:59;103296.0;;;-3.34;80.33
62458;BME280;48509;52.122;5.250;2024-01-11T00:35:35;103296.0;;;-3.47;81.5
62458;BME280;48509;52.122;5.250;2024-01-11T00:37:11;103298.0;;;-3.4;80.91
62458;BME280;48509;52.122;5.250;2024-01-11T00:40:23;103300.0;;;-3.41;80.64
62458;BME280;48509;52.122;5.250;2024-01-11T00:41:59;103297.0;;;-3.3;80.28
62458;BME280;48509;52.122;5.250;2024-01-11T00:43:35;103297.0;;;-3.32;80.2
62458;BME280;48509;52.122;5.250;2024-01-11T00:45:11;103299.0;;;-3.42;80.77
62458;BME280;48509;52.122;5.250;2024-01-11T00:48:23;103295.0;;;-3.47;80.52
62458;BME280;48509;52.122;5.250;2024-01-11T00:49:59;103293.0;;;-3.29;80.02
62458;BME280;48509;52.122;5.250;2024-01-11T00:51:36;103288.00000000001;;;-3.46;81.23
62458;BME280;48509;52.122;5.250;2024-01-11T00:54:48;103292.0;;;-3.39;80.92
62458;BME280;48509;52.122;5.250;2024-01-11T00:56:24;103293.0;;;-3.32;80.69
62458;BME280;48509;52.122;5.250;2024-01-11T00:58:00;103290.00000000001;;;-3.37;81.02
62458;BME280;48509;52.122;5.250;2024-01-11T01:01:12;103294.0;;;-3.27;80.59
62458;BME280;48509;52.122;5.250;2024-01-11T01:02:48;103292.0;;;-3.35;81.27
62458;BME280;48509;52.122;5.250;2024-01-11T01:04:24;103296.0;;;-3.27;80.53
62458;BME280;48509;52.122;5.250;2024-01-11T01:07:37;103300.0;;;-3.36;81.19
62458;BME280;48509;52.122;5.250;2024-01-11T01:09:13;103303.0;;;-3.44;81.95
62458;BME280;48509;52.122;5.250;2024-01-11T01:10:49;103300.0;;;-3.55;83.03
62458;BME280;48509;52.122;5.250;2024-01-11T01:12:25;103303.0;;;-3.35;81.87
62458;BME280;48509;52.122;5.250;2024-01-11T01:15:37;103305.0;;;-3.37;81.59
62458;BME280;48509;52.122;5.250;2024-01-11T01:17:13;103304.0;;;-3.38;81.52
62458;BME280;48509;52.122;5.250;2024-01-11T01:18:49;103300.0;;;-3.4;81.91
62458;BME280;48509;52.122;5.250;2024-01-11T01:22:01;103306.0;;;-3.44;82.02
62458;BME280;48509;52.122;5.250;2024-01-11T01:23:37;103306.0;;;-3.28;81.56
62458;BME280;48509;52.122;5.250;2024-01-11T01:25:14;103306.0;;;-3.34;81.63
62458;BME280;48509;52.122;5.250;2024-01-11T01:28:26;103313.00000000001;;;-3.36;81.47
62458;BME280;48509;52.122;5.250;2024-01-11T01:30:02;103313.00000000001;;;-3.6;82.88
62458;BME280;48509;52.122;5.250;2024-01-11T01:31:39;103313.00000000001;;;-3.54;83.01
62458;BME280;48509;52.122;5.250;2024-01-11T01:34:51;103321.0;;;-3.6;82.99
62458;BME280;48509;52.122;5.250;2024-01-11T01:36:27;103321.0;;;-3.61;83.17
62458;BME280;48509;52.122;5.250;2024-01-11T01:38:03;103321.0;;;-3.61;83.37
62458;BME280;48509;52.122;5.250;2024-01-11T01:39:39;103317.0;;;-3.74;84.05
62458;BME280;48509;52.122;5.250;2024-01-11T01:42:57;103319.0;;;-3.78;84.54
62458;BME280;48509;52.122;5.250;2024-01-11T01:44:34;103325.0;;;-3.82;84.7
62458;BME280;48509;52.122;5.250;2024-01-11T01:46:10;103320.0;;;-3.73;84.5
62458;BME280;48509;52.122;5.250;2024-01-11T01:49:23;103326.0;;;-3.73;84.73
62458;BME280;48509;52.122;5.250;2024-01-11T01:51:00;103327.0;;;-3.78;85.16
62458;BME280;48509;52.122;5.250;2024-01-11T01:52:39;103320.0;;;-3.76;85.59
62458;BME280;48509;52.122;5.250;2024-01-11T01:54:19;103327.0;;;-3.85;85.9
62458;BME280;48509;52.122;5.250;2024-01-11T01:57:34;103330.0;;;-3.86;85.58
62458;BME280;48509;52.122;5.250;2024-01-11T01:59:11;103328.0;;;-3.97;86.59
62458;BME280;48509;52.122;5.250;2024-01-11T02:00:50;103333.0;;;-3.87;86.34
62458;BME280;48509;52.122;5.250;2024-01-11T02:04:04;103331.0;;;-3.92;86.25
62458;BME280;48509;52.122;5.250;2024-01-11T02:07:16;103328.0;;;-3.94;86.62
62458;BME280;48509;52.122;5.250;2024-01-11T02:08:54;103331.0;;;-3.95;86.99
62458;BME280;48509;52.122;5.250;2024-01-11T02:12:08;103327.0;;;-3.96;86.75
62458;BME280;48509;52.122;5.250;2024-01-11T02:13:46;103333.0;;;-3.87;86.14
62458;BME280;48509;52.122;5.250;2024-01-11T02:15:21;103341.00000000001;;;-3.62;85.46
62458;BME280;48509;52.122;5.250;2024-01-11T02:18:34;103344.0;;;-3.79;86.34
62458;BME280;48509;52.122;5.250;2024-01-11T02:20:11;103347.0;;;-3.81;87.45
62458;BME280;48509;52.122;5.250;2024-01-11T02:21:49;103344.0;;;-3.84;87.45
62458;BME280;48509;52.122;5.250;2024-01-11T02:23:30;103341.00000000001;;;-3.86;88.01
62458;BME280;48509;52.122;5.250;2024-01-11T02:26:57;103339.00000000001;;;-3.81;87.95
62458;BME280;48509;52.122;5.250;2024-01-11T02:28:34;103339.00000000001;;;-3.75;88.01
62458;BME280;48509;52.122;5.250;2024-01-11T02:30:11;103331.0;;;-3.65;88.04
62458;BME280;48509;52.122;5.250;2024-01-11T02:33:23;103323.0;;;-3.41;87.15
62458;BME280;48509;52.122;5.250;2024-01-11T02:34:59;103321.0;;;-3.54;87.64
62458;BME280;48509;52.122;5.250;2024-01-11T02:36:39;103318.0;;;-3.56;87.89
62458;BME280;48509;52.122;5.250;2024-01-11T02:38:16;103320.0;;;-3.58;87.94
62458;BME280;48509;52.122;5.250;2024-01-11T02:41:29;103319.0;;;-3.62;88.57
62458;BME280;48509;52.122;5.250;2024-01-11T02:43:07;103325.0;;;-3.64;88.67
62458;BME280;48509;52.122;5.250;2024-01-11T02:44:44;103326.0;;;-3.63;88.82
62458;BME280;48509;52.122;5.250;2024-01-11T02:47:56;103321.0;;;-3.66;88.63
62458;BME280;48509;52.122;5.250;2024-01-11T02:49:32;103322.0;;;-3.83;89.55
62458;BME280;48509;52.122;5.250;2024-01-11T02:51:08;103316.00000000001;;;-3.86;90.34
62458;BME280;48509;52.122;5.250;2024-01-11T02:54:20;103315.00000000001;;;-3.66;90.11
62458;BME280;48509;52.122;5.250;2024-01-11T02:55:56;103318.0;;;-3.72;90.97
62458;BME280;48509;52.122;5.250;2024-01-11T02:57:33;103316.00000000001;;;-3.79;91.56
62458;BME280;48509;52.122;5.250;2024-01-11T02:59:12;103305.0;;;-3.7;91.11
62458;BME280;48509;52.122;5.250;2024-01-11T03:02:24;103306.0;;;-3.66;91.28
62458;BME280;48509;52.122;5.250;2024-01-11T03:04:00;103315.00000000001;;;-3.56;90.08
62458;BME280;48509;52.122;5.250;2024-01-11T03:05:36;103316.00000000001;;;-3.53;89.94
62458;BME280;48509;52.122;5.250;2024-01-11T03:08:48;103315.00000000001;;;-3.73;89.91
62458;BME280;48509;52.122;5.250;2024-01-11T03:10:24;103316.00000000001;;;-3.64;89.34
62458;BME280;48509;52.122;5.250;2024-01-11T03:12:00;103318.0;;;-3.69;89.49
62458;BME280;48509;52.122;5.250;2024-01-11T03:15:13;103320.0;;;-3.81;89.45
62458;BME280;48509;52.122;5.250;2024-01-11T03:16:49;103320.0;;;-3.82;89.44
62458;BME280;48509;52.122;5.250;2024-01-11T03:18:25;103332.0;;;-3.7;88.97
62458;BME280;48509;52.122;5.250;2024-01-11T03:20:01;103334.99999999999;;;-3.69;88.28
62458;BME280;48509;52.122;5.250;2024-01-11T03:23:18;103333.0;;;-3.71;88.66
62458;BME280;48509;52.122;5.250;2024-01-11T03:24:54;103333.99999999999;;;-3.69;88.68
62458;BME280;48509;52.122;5.250;2024-01-11T03:26:30;103338.00000000001;;;-3.7;88.73
62458;BME280;48509;52.122;5.250;2024-01-11T03:29:42;103342.0;;;-3.77;88.93
62458;BME280;48509;52.122;5.250;2024-01-11T03:31:18;103340.00000000001;;;-3.53;89.23
62458;BME280;48509;52.122;5.250;2024-01-11T03:32:55;103338.00000000001;;;-3.31;89.14
62458;BME280;48509;52.122;5.250;2024-01-11T03:36:08;103331.0;;;-3.34;88.67
62458;BME280;48509;52.122;5.250;2024-01-11T03:37:44;103327.0;;;-3.46;88.6
62458;BME280;48509;52.122;5.250;2024-01-11T03:39:20;103334.99999999999;;;-3.59;88.85
62458;BME280;48509;52.122;5.250;2024-01-11T03:40:56;103343.0;;;-3.69;89.16
62458;BME280;48509;52.122;5.250;2024-01-11T03:44:08;103341.00000000001;;;-3.67;89.09
62458;BME280;48509;52.122;5.250;2024-01-11T03:45:44;103342.0;;;-3.79;89.93
62458;BME280;48509;52.122;5.250;2024-01-11T03:47:20;103339.00000000001;;;-3.68;89.54
62458;BME280;48509;52.122;5.250;2024-01-11T03:50:32;103341.00000000001;;;-3.7;88.94
62458;BME280;48509;52.122;5.250;2024-01-11T03:52:09;103341.00000000001;;;-3.89;89.48
62458;BME280;48509;52.122;5.250;2024-01-11T03:53:45;103332.0;;;-3.75;89.5
62458;BME280;48509;52.122;5.250;2024-01-11T03:56:57;103331.0;;;-3.74;89.66
62458;BME280;48509;52.122;5.250;2024-01-11T03:58:35;103329.0;;;-3.95;90.12
62458;BME280;48509;52.122;5.250;2024-01-11T04:00:12;103336.99999999999;;;-3.96;89.87
62458;BME280;48509;52.122;5.250;2024-01-11T04:03:24;103341.00000000001;;;-4.13;90.79
62458;BME280;48509;52.122;5.250;2024-01-11T04:05:00;103342.0;;;-4.12;90.25
62458;BME280;48509;52.122;5.250;2024-01-11T04:06:36;103350.0;;;-4.06;89.61
62458;BME280;48509;52.122;5.250;2024-01-11T04:08:13;103357.0;;;-4.09;90.11
62458;BME280;48509;52.122;5.250;2024-01-11T04:11:27;103358.0;;;-4.17;90.38
62458;BME280;48509;52.122;5.250;2024-01-11T04:13:03;103351.0;;;-4.29;91.21
62458;BME280;48509;52.122;5.250;2024-01-11T04:14:39;103355.0;;;-4.17;91.0
62458;BME280;48509;52.122;5.250;2024-01-11T04:17:51;103358.0;;;-3.96;90.99
62458;BME280;48509;52.122;5.250;2024-01-11T04:19:27;103364.00000000001;;;-3.83;91.08
62458;BME280;48509;52.122;5.250;2024-01-11T04:21:03;103363.00000000001;;;-3.64;91.41
62458;BME280;48509;52.122;5.250;2024-01-11T04:24:15;103363.00000000001;;;-3.61;91.45
62458;BME280;48509;52.122;5.250;2024-01-11T04:25:51;103364.00000000001;;;-3.54;91.35
62458;BME280;48509;52.122;5.250;2024-01-11T04:27:28;103355.0;;;-3.34;91.17
62458;BME280;48509;52.122;5.250;2024-01-11T04:29:05;103358.99999999999;;;-3.18;90.48
62458;BME280;48509;52.122;5.250;2024-01-11T04:32:17;103367.0;;;-3.13;90.08
62458;BME280;48509;52.122;5.250;2024-01-11T04:33:53;103369.0;;;-3.04;89.64
62458;BME280;48509;52.122;5.250;2024-01-11T04:35:29;103374.0;;;-2.98;89.53
62458;BME280;48509;52.122;5.250;2024-01-11T04:38:42;103380.0;;;-2.9;88.98
62458;BME280;48509;52.122;5.250;2024-01-11T04:40:18;103371.0;;;-3.03;89.17
62458;BME280;48509;52.122;5.250;2024-01-11T04:41:54;103373.0;;;-2.97;89.44
62458;BME280;48509;52.122;5.250;2024-01-11T04:45:07;103373.0;;;-2.95;89.36
62458;BME280;48509;52.122;5.250;2024-01-11T04:46:44;103375.0;;;-2.91;89.35
62458;BME280;48509;52.122;5.250;2024-01-11T04:48:20;103374.0;;;-2.74;88.67
62458;BME280;48509;52.122;5.250;2024-01-11T04:49:56;103378.0;;;-2.8;88.45
62458;BME280;48509;52.122;5.250;2024-01-11T04:53:08;103377.0;;;-2.65;88.05
62458;BME280;48509;52.122;5.250;2024-01-11T04:54:44;103388.00000000001;;;-2.68;88.05
62458;BME280;48509;52.122;5.250;2024-01-11T04:56:20;103383.0;;;-2.56;87.59
62458;BME280;48509;52.122;5.250;2024-01-11T04:59:32;103381.0;;;-2.51;87.11
62458;BME280;48509;52.122;5.250;2024-01-11T05:01:11;103382.0;;;-2.53;87.08
62458;BME280;48509;52.122;5.250;2024-01-11T05:02:47;103369.0;;;-2.46;86.63
62458;BME280;48509;52.122;5.250;2024-01-11T05:06:00;103376.0;;;-2.58;87.28
62458;BME280;48509;52.122;5.250;2024-01-11T05:07:36;103383.99999999999;;;-2.55;87.08
62458;BME280;48509;52.122;5.250;2024-01-11T05:09:12;103380.0;;;-2.5;86.68
62458;BME280;48509;52.122;5.250;2024-01-11T05:12:24;103370.0;;;-2.75;87.26
62458;BME280;48509;52.122;5.250;2024-01-11T05:13:59;103366.00000000001;;;-2.79;87.35
62458;BME280;48509;52.122;5.250;2024-01-11T05:15:35;103363.00000000001;;;-2.69;87.61
62458;BME280;48509;52.122;5.250;2024-01-11T05:17:12;103361.99999999999;;;-2.67;87.51
62458;BME280;48509;52.122;5.250;2024-01-11T05:20:25;103365.00000000001;;;-2.67;87.45
62458;BME280;48509;52.122;5.250;2024-01-11T05:22:02;103369.0;;;-2.62;87.47
62458;BME280;48509;52.122;5.250;2024-01-11T05:23:40;103370.0;;;-2.69;87.98
62458;BME280;48509;52.122;5.250;2024-01-11T05:26:52;103361.99999999999;;;-2.67;87.96
62458;BME280;48509;52.122;5.250;2024-01-11T05:28:28;103370.0;;;-2.77;88.14
62458;BME280;48509;52.122;5.250;2024-01-11T05:30:05;103359.99999999999;;;-2.64;88.0
62458;BME280;48509;52.122;5.250;2024-01-11T05:33:17;103356.0;;;-2.59;87.75
62458;BME280;48509;52.122;5.250;2024-01-11T05:34:53;103358.99999999999;;;-2.52;87.47
62458;BME280;48509;52.122;5.250;2024-01-11T05:36:29;103354.0;;;-2.65;87.96
62458;BME280;48509;52.122;5.250;2024-01-11T05:38:05;103349.0;;;-2.67;88.32
62458;BME280;48509;52.122;5.250;2024-01-11T05:41:18;103342.0;;;-2.95;88.8
62458;BME280;48509;52.122;5.250;2024-01-11T05:42:53;103341.00000000001;;;-3.21;90.0
62458;BME280;48509;52.122;5.250;2024-01-11T05:44:29;103339.00000000001;;;-3.47;91.66
62458;BME280;48509;52.122;5.250;2024-01-11T05:47:44;103346.0;;;-3.32;91.45
62458;BME280;48509;52.122;5.250;2024-01-11T05:49:20;103367.0;;;-3.3;90.84
62458;BME280;48509;52.122;5.250;2024-01-11T05:50:56;103368.0;;;-3.46;91.75
62458;BME280;48509;52.122;5.250;2024-01-11T05:54:08;103370.0;;;-3.52;91.79
62458;BME280;48509;52.122;5.250;2024-01-11T05:55:44;103361.99999999999;;;-3.6;91.86
62458;BME280;48509;52.122;5.250;2024-01-11T05:57:20;103358.0;;;-3.7;92.53
62458;BME280;48509;52.122;5.250;2024-01-11T06:00:33;103364.00000000001;;;-3.74;93.14
62458;BME280;48509;52.122;5.250;2024-01-11T06:02:09;103375.0;;;-3.58;92.17
62458;BME280;48509;52.122;5.250;2024-01-11T06:03:45;103382.0;;;-3.62;92.17
62458;BME280;48509;52.122;5.250;2024-01-11T06:05:21;103380.0;;;-3.79;93.17
62458;BME280;48509;52.122;5.250;2024-01-11T06:08:33;103389.00000000001;;;-3.79;93.15
62458;BME280;48509;52.122;5.250;2024-01-11T06:10:09;103395.0;;;-3.79;92.5
62458;BME280;48509;52.122;5.250;2024-01-11T06:11:45;103390.00000000001;;;-3.7;92.23
62458;BME280;48509;52.122;5.250;2024-01-11T06:14:58;103401.0;;;-3.74;92.4
62458;BME280;48509;52.122;5.250;2024-01-11T06:16:34;103415.00000000001;;;-3.69;91.76
62458;BME280;48509;52.122;5.250;2024-01-11T06:18:10;103413.00000000001;;;-4.02;92.79
62458;BME280;48509;52.122;5.250;2024-01-11T06:21:22;103417.0;;;-4.06;94.23
62458;BME280;48509;52.122;5.250;2024-01-11T06:22:58;103423.0;;;-4.07;93.74
62458;BME280;48509;52.122;5.250;2024-01-11T06:24:34;103429.0;;;-4.03;93.42
62458;BME280;48509;52.122;5.250;2024-01-11T06:26:10;103439.00000000001;;;-3.94;92.51
62458;BME280;48509;52.122;5.250;2024-01-11T06:29:23;103449.0;;;-3.86;92.38
62458;BME280;48509;52.122;5.250;2024-01-11T06:30:59;103468.0;;;-3.72;91.98
62458;BME280;48509;52.122;5.250;2024-01-11T06:32:35;103470.0;;;-3.56;91.51
62458;BME280;48509;52.122;5.250;2024-01-11T06:35:47;103471.0;;;-3.85;92.56
62458;BME280;48509;52.122;5.250;2024-01-11T06:37:23;103464.00000000001;;;-4.04;93.59
62458;BME280;48509;52.122;5.250;2024-01-11T06:38:59;103457.0;;;-3.88;93.55
62458;BME280;48509;52.122;5.250;2024-01-11T06:42:11;103464.00000000001;;;-3.72;93.37
62458;BME280;48509;52.122;5.250;2024-01-11T06:43:47;103461.99999999999;;;-3.51;92.85
62458;BME280;48509;52.122;5.250;2024-01-11T06:45:23;103476.0;;;-3.47;92.95
62458;BME280;48509;52.122;5.250;2024-01-11T06:48:36;103470.0;;;-3.35;92.53
62458;BME280;48509;52.122;5.250;2024-01-11T06:50:12;103471.0;;;-3.1;91.5
62458;BME280;48509;52.122;5.250;2024-01-11T06:51:48;103474.0;;;-3.19;91.32
62458;BME280;48509;52.122;5.250;2024-01-11T06:53:24;103471.0;;;-3.09;90.72
62458;BME280;48509;52.122;5.250;2024-01-11T06:56:36;103477.0;;;-3.15;90.28
62458;BME280;48509;52.122;5.250;2024-01-11T06:58:12;103476.0;;;-3.48;91.49
62458;BME280;48509;52.122;5.250;2024-01-11T06:59:48;103481.0;;;-3.42;91.42
62458;BME280;48509;52.122;5.250;2024-01-11T07:03:00;103481.0;;;-3.2;91.04
62458;BME280;48509;52.122;5.250;2024-01-11T07:04:37;103491.00000000001;;;-3.18;90.23
62458;BME280;48509;52.122;5.250;2024-01-11T07:06:13;103492.0;;;-3.31;90.48
62458;BME280;48509;52.122;5.250;2024-01-11T07:09:25;103492.0;;;-3.37;91.18
62458;BME280;48509;52.122;5.250;2024-01-11T07:11:01;103496.0;;;-3.17;90.5
62458;BME280;48509;52.122;5.250;2024-01-11T07:12:38;103490.00000000001;;;-3.22;90.36
62458;BME280;48509;52.122;5.250;2024-01-11T07:15:51;103492.0;;;-3.49;90.97
62458;BME280;48509;52.122;5.250;2024-01-11T07:17:30;103484.99999999999;;;-3.71;91.39
62458;BME280;48509;52.122;5.250;2024-01-11T07:19:06;103478.0;;;-3.39;90.86
62458;BME280;48509;52.122;5.250;2024-01-11T07:20:42;103475.0;;;-3.61;90.5
62458;BME280;48509;52.122;5.250;2024-01-11T07:23:55;103470.0;;;-3.88;91.43
62458;BME280;48509;52.122;5.250;2024-01-11T07:25:31;103461.99999999999;;;-3.86;92.31
62458;BME280;48509;52.122;5.250;2024-01-11T07:27:07;103457.0;;;-3.93;92.16
62458;BME280;48509;52.122;5.250;2024-01-11T07:30:19;103447.0;;;-3.82;91.71
62458;BME280;48509;52.122;5.250;2024-01-11T07:31:55;103447.0;;;-3.69;91.09
62458;BME280;48509;52.122;5.250;2024-01-11T07:33:31;103450.0;;;-3.86;90.81
62458;BME280;48509;52.122;5.250;2024-01-11T07:36:44;103446.0;;;-4.16;91.94
62458;BME280;48509;52.122;5.250;2024-01-11T07:38:20;103439.00000000001;;;-4.34;93.13
62458;BME280;48509;52.122;5.250;2024-01-11T07:39:57;103439.00000000001;;;-4.28;93.24
62458;BME280;48509;52.122;5.250;2024-01-11T07:41:33;103439.00000000001;;;-4.25;92.98
62458;BME280;48509;52.122;5.250;2024-01-11T07:44:45;103443.0;;;-4.13;91.71
62458;BME280;48509;52.122;5.250;2024-01-11T07:46:21;103446.0;;;-4.29;92.0
62458;BME280;48509;52.122;5.250;2024-01-11T07:47:57;103449.0;;;-4.37;92.99
62458;BME280;48509;52.122;5.250;2024-01-11T07:51:09;103456.0;;;-4.41;93.69
62458;BME280;48509;52.122;5.250;2024-01-11T07:52:45;103453.0;;;-4.43;93.89
62458;BME280;48509;52.122;5.250;2024-01-11T07:54:21;103451.0;;;-4.42;94.38
62458;BME280;48509;52.122;5.250;2024-01-11T07:57:34;103452.0;;;-4.46;94.16
62458;BME280;48509;52.122;5.250;2024-01-11T07:59:11;103456.0;;;-4.45;94.67
62458;BME280;48509;52.122;5.250;2024-01-11T08:00:47;103449.0;;;-4.44;94.75
62458;BME280;48509;52.122;5.250;2024-01-11T08:04:03;103455.0;;;-4.44;94.87
62458;BME280;48509;52.122;5.250;2024-01-11T08:05:40;103455.0;;;-4.25;93.81
62458;BME280;48509;52.122;5.250;2024-01-11T08:07:16;103457.0;;;-4.26;93.46
62458;BME280;48509;52.122;5.250;2024-01-11T08:08:52;103467.0;;;-4.13;93.44
62458;BME280;48509;52.122;5.250;2024-01-11T08:12:05;103458.0;;;-4.24;92.69
62458;BME280;48509;52.122;5.250;2024-01-11T08:13:41;103454.0;;;-4.27;92.34
62458;BME280;48509;52.122;5.250;2024-01-11T08:15:17;103450.0;;;-4.35;93.35
62458;BME280;48509;52.122;5.250;2024-01-11T08:18:30;103443.0;;;-4.44;93.32
62458;BME280;48509;52.122;5.250;2024-01-11T08:20:06;103448.0;;;-4.33;93.32
62458;BME280;48509;52.122;5.250;2024-01-11T08:21:43;103447.0;;;-4.31;93.19
62458;BME280;48509;52.122;5.250;2024-01-11T08:24:55;103446.0;;;-4.29;93.22
62458;BME280;48509;52.122;5.250;2024-01-11T08:26:31;103446.0;;;-4.13;92.41
62458;BME280;48509;52.122;5.250;2024-01-11T08:28:07;103457.0;;;-4.29;91.45
62458;BME280;48509;52.122;5.250;2024-01-11T08:29:43;103452.0;;;-4.26;91.64
62458;BME280;48509;52.122;5.250;2024-01-11T08:32:55;103450.0;;;-4.08;91.15
62458;BME280;48509;52.122;5.250;2024-01-11T08:34:32;103451.0;;;-4.15;90.78
62458;BME280;48509;52.122;5.250;2024-01-11T08:36:08;103459.99999999999;;;-4.2;91.16
62458;BME280;48509;52.122;5.250;2024-01-11T08:39:20;103470.0;;;-4.37;91.51
62458;BME280;48509;52.122;5.250;2024-01-11T08:40:56;103472.0;;;-4.26;92.07
62458;BME280;48509;52.122;5.250;2024-01-11T08:42:32;103482.0;;;-4.18;92.41
62458;BME280;48509;52.122;5.250;2024-01-11T08:45:45;103480.0;;;-4.15;92.44
62458;BME280;48509;52.122;5.250;2024-01-11T08:47:24;103484.99999999999;;;-4.06;92.2
62458;BME280;48509;52.122;5.250;2024-01-11T08:49:01;103483.99999999999;;;-4.19;93.43
62458;BME280;48509;52.122;5.250;2024-01-11T08:50:37;103489.00000000001;;;-4.09;93.77
62458;BME280;48509;52.122;5.250;2024-01-11T08:53:50;103499.0;;;-4.13;93.79
62458;BME280;48509;52.122;5.250;2024-01-11T08:55:26;103499.0;;;-4.02;94.11
62458;BME280;48509;52.122;5.250;2024-01-11T08:57:02;103504.0;;;-3.86;93.96
62458;BME280;48509;52.122;5.250;2024-01-11T09:00:15;103506.0;;;-3.85;93.57
62458;BME280;48509;52.122;5.250;2024-01-11T09:01:51;103514.00000000001;;;-3.68;93.41
62458;BME280;48509;52.122;5.250;2024-01-11T09:03:27;103521.0;;;-3.51;92.68
62458;BME280;48509;52.122;5.250;2024-01-11T09:06:40;103527.0;;;-3.52;92.78
62458;BME280;48509;52.122;5.250;2024-01-11T09:08:16;103530.0;;;-3.39;92.63
62458;BME280;48509;52.122;5.250;2024-01-11T09:09:52;103531.0;;;-3.41;93.17
62458;BME280;48509;52.122;5.250;2024-01-11T09:11:29;103533.99999999999;;;-3.29;92.96
62458;BME280;48509;52.122;5.250;2024-01-11T09:14:41;103540.00000000001;;;-3.16;92.54
62458;BME280;48509;52.122;5.250;2024-01-11T09:16:17;103539.00000000001;;;-3.19;93.23
62458;BME280;48509;52.122;5.250;2024-01-11T09:17:53;103531.0;;;-3.06;92.95
62458;BME280;48509;52.122;5.250;2024-01-11T09:21:05;103533.0;;;-2.99;92.86
62458;BME280;48509;52.122;5.250;2024-01-11T09:22:41;103531.0;;;-2.95;92.93
62458;BME280;48509;52.122;5.250;2024-01-11T09:24:17;103533.99999999999;;;-2.78;92.92
62458;BME280;48509;52.122;5.250;2024-01-11T09:27:29;103533.99999999999;;;-2.6;92.53
62458;BME280;48509;52.122;5.250;2024-01-11T09:29:06;103528.0;;;-2.53;92.44
62458;BME280;48509;52.122;5.250;2024-01-11T09:30:42;103525.0;;;-2.3;92.26
62458;BME280;48509;52.122;5.250;2024-01-11T09:33:54;103525.0;;;-2.17;91.97
62458;BME280;48509;52.122;5.250;2024-01-11T09:35:30;103532.0;;;-2.06;91.84
62458;BME280;48509;52.122;5.250;2024-01-11T09:37:06;103534.99999999999;;;-1.96;92.11
62458;BME280;48509;52.122;5.250;2024-01-11T09:38:42;103538.00000000001;;;-1.81;92.51
62458;BME280;48509;52.122;5.250;2024-01-11T09:41:58;103542.0;;;-1.55;92.21
62458;BME280;48509;52.122;5.250;2024-01-11T09:43:35;103541.00000000001;;;-1.47;92.58
62458;BME280;48509;52.122;5.250;2024-01-11T09:45:13;103544.0;;;-1.17;92.19
62458;BME280;48509;52.122;5.250;2024-01-11T09:48:26;103541.00000000001;;;-1.0;92.23
62458;BME280;48509;52.122;5.250;2024-01-11T09:50:03;103541.00000000001;;;-1.0;92.28
62458;BME280;48509;52.122;5.250;2024-01-11T09:51:42;103539.00000000001;;;-0.94;93.03
62458;BME280;48509;52.122;5.250;2024-01-11T09:53:19;103534.99999999999;;;-0.73;93.25
62458;BME280;48509;52.122;5.250;2024-01-11T09:56:34;103541.00000000001;;;-0.71;92.8
62458;BME280;48509;52.122;5.250;2024-01-11T09:58:10;103545.0;;;-0.73;93.24
62458;BME280;48509;52.122;5.250;2024-01-11T09:59:49;103547.0;;;-0.62;92.81
62458;BME280;48509;52.122;5.250;2024-01-11T10:03:04;103548.0;;;-0.42;92.79
62458;BME280;48509;52.122;5.250;2024-01-11T10:04:42;103546.0;;;-0.39;93.16
62458;BME280;48509;52.122;5.250;2024-01-11T10:06:17;103539.00000000001;;;-0.52;95.03
62458;BME280;48509;52.122;5.250;2024-01-11T10:09:31;103542.0;;;-0.21;94.41
62458;BME280;48509;52.122;5.250;2024-01-11T10:11:07;103545.0;;;-0.21;94.42
62458;BME280;48509;52.122;5.250;2024-01-11T10:12:43;103546.0;;;-0.13;94.04
62458;BME280;48509;52.122;5.250;2024-01-11T10:14:20;103551.0;;;0.04;94.05
62458;BME280;48509;52.122;5.250;2024-01-11T10:17:45;103553.0;;;0.02;93.79
62458;BME280;48509;52.122;5.250;2024-01-11T10:19:21;103557.0;;;0.15;93.87
62458;BME280;48509;52.122;5.250;2024-01-11T10:20:57;103553.0;;;0.38;93.13
62458;BME280;48509;52.122;5.250;2024-01-11T10:24:09;103549.0;;;0.56;92.39
62458;BME280;48509;52.122;5.250;2024-01-11T10:25:45;103544.0;;;0.63;92.69
62458;BME280;48509;52.122;5.250;2024-01-11T10:27:25;103547.0;;;0.78;91.77
62458;BME280;48509;52.122;5.250;2024-01-11T10:29:05;103541.00000000001;;;0.64;92.67
62458;BME280;48509;52.122;5.250;2024-01-11T10:32:21;103542.0;;;0.8;92.18
62458;BME280;48509;52.122;5.250;2024-01-11T10:33:57;103544.0;;;0.83;92.13
62458;BME280;48509;52.122;5.250;2024-01-11T10:35:33;103546.0;;;1.02;92.25
62458;BME280;48509;52.122;5.250;2024-01-11T10:38:49;103544.0;;;0.82;92.94
62458;BME280;48509;52.122;5.250;2024-01-11T10:40:28;103552.0;;;1.04;92.3
62458;BME280;48509;52.122;5.250;2024-01-11T10:42:06;103545.0;;;1.22;91.72
62458;BME280;48509;52.122;5.250;2024-01-11T10:43:42;103551.0;;;1.37;90.95